createdAt,value
2022-10-08T00:00:36.081Z,100
2022-10-08T00:01:36.128Z,100
2022-10-08T00:02:36.157Z,100
2022-10-08T00:03:36.089Z,100
2022-10-08T00:04:36.075Z,100
2022-10-08T00:05:36.053Z,100
2022-10-08T00:06:36.161Z,100
2022-10-08T00:07:36.060Z,100
2022-10-08T00:08:36.068Z,100
2022-10-08T00:09:36.074Z,100
2022-10-08T00:10:36.190Z,100
2022-10-08T00:11:36.234Z,100
2022-10-08T00:12:36.371Z,100
2022-10-08T00:13:36.442Z,100
2022-10-08T00:14:36.480Z,100
2022-10-08T00:15:36.078Z,100
2022-10-08T00:16:36.187Z,100
2022-10-08T00:17:36.091Z,100
2022-10-08T00:18:36.150Z,100
2022-10-08T00:19:36.177Z,100
2022-10-08T00:20:36.193Z,100
2022-10-08T00:21:36.045Z,100
2022-10-08T00:22:36.070Z,100
2022-10-08T00:23:36.040Z,100
2022-10-08T00:24:36.081Z,100
2022-10-08T00:25:36.125Z,100
2022-10-08T00:26:41.130Z,100
2022-10-08T00:27:36.076Z,100
2022-10-08T00:28:36.238Z,100
2022-10-08T00:29:36.078Z,100
2022-10-08T00:30:36.131Z,100
2022-10-08T00:31:36.131Z,100
2022-10-08T00:32:36.152Z,100
2022-10-08T00:33:36.162Z,100
2022-10-08T00:34:36.139Z,100
2022-10-08T00:35:36.138Z,100
2022-10-08T00:36:36.186Z,100
2022-10-08T00:37:36.083Z,100
2022-10-08T00:38:36.140Z,100
2022-10-08T00:39:36.110Z,100
2022-10-08T00:40:36.085Z,100
2022-10-08T00:41:36.126Z,100
2022-10-08T00:42:36.180Z,100
2022-10-08T00:43:36.074Z,100
2022-10-08T00:44:36.237Z,100
2022-10-08T00:45:36.280Z,100
2022-10-08T00:46:36.213Z,100
2022-10-08T00:47:36.116Z,100
2022-10-08T00:48:36.305Z,100
2022-10-08T00:49:36.180Z,100
2022-10-08T00:50:36.206Z,100
2022-10-08T00:51:36.324Z,100
2022-10-08T00:52:36.324Z,100
2022-10-08T00:53:36.044Z,100
2022-10-08T00:54:36.060Z,100
2022-10-08T00:55:43.145Z,100
2022-10-08T00:56:36.100Z,100
2022-10-08T00:57:36.215Z,100
2022-10-08T00:58:36.184Z,100
2022-10-08T00:59:36.093Z,100
2022-10-08T01:00:36.180Z,100
2022-10-08T01:01:36.122Z,100
2022-10-08T01:02:36.101Z,100
2022-10-08T01:03:36.127Z,100
2022-10-08T01:04:36.040Z,100
2022-10-08T01:05:36.085Z,100
2022-10-08T01:06:36.135Z,100
2022-10-08T01:07:36.166Z,100
2022-10-08T01:08:36.068Z,100
2022-10-08T01:09:36.060Z,100
2022-10-08T01:10:36.083Z,100
2022-10-08T01:11:36.101Z,100
2022-10-08T01:12:36.200Z,100
2022-10-08T01:13:36.218Z,100
2022-10-08T01:14:36.087Z,100
2022-10-08T01:15:36.133Z,100
2022-10-08T01:16:36.244Z,100
2022-10-08T01:17:36.084Z,100
2022-10-08T01:18:36.114Z,100
2022-10-08T01:19:36.142Z,100
2022-10-08T01:20:36.126Z,100
2022-10-08T01:21:36.105Z,100
2022-10-08T01:22:36.138Z,100
2022-10-08T01:23:36.145Z,100
2022-10-08T01:24:36.189Z,100
2022-10-08T01:25:36.054Z,100
2022-10-08T01:26:36.067Z,100
2022-10-08T01:27:36.110Z,100
2022-10-08T01:28:36.266Z,100
2022-10-08T01:29:36.115Z,100
2022-10-08T01:30:36.052Z,100
2022-10-08T01:31:36.213Z,100
2022-10-08T01:32:36.098Z,100
2022-10-08T01:33:36.044Z,100
2022-10-08T01:34:36.049Z,100
2022-10-08T01:35:36.156Z,100
2022-10-08T01:36:36.132Z,100
2022-10-08T01:37:36.155Z,100
2022-10-08T01:38:36.136Z,100
2022-10-08T01:39:36.148Z,100
2022-10-08T01:40:36.186Z,100
2022-10-08T01:41:36.113Z,100
2022-10-08T01:42:36.045Z,100
2022-10-08T01:43:36.067Z,100
2022-10-08T01:44:36.127Z,100
2022-10-08T01:45:36.167Z,100
2022-10-08T01:46:36.079Z,100
2022-10-08T01:47:36.061Z,100
2022-10-08T01:48:36.133Z,100
2022-10-08T01:49:36.108Z,100
2022-10-08T01:50:36.124Z,100
2022-10-08T01:51:36.136Z,100
2022-10-08T01:52:36.139Z,100
2022-10-08T01:53:36.138Z,100
2022-10-08T01:54:36.135Z,100
2022-10-08T01:55:36.189Z,100
2022-10-08T01:56:36.079Z,100
2022-10-08T01:57:36.088Z,100
2022-10-08T01:58:36.058Z,100
2022-10-08T01:59:36.172Z,100
2022-10-08T02:00:36.116Z,100
2022-10-08T02:01:36.176Z,100
2022-10-08T02:02:38.287Z,100
2022-10-08T02:03:36.102Z,100
2022-10-08T02:04:36.134Z,100
2022-10-08T02:05:36.104Z,100
2022-10-08T02:06:36.117Z,100
2022-10-08T02:07:36.136Z,100
2022-10-08T02:08:36.118Z,100
2022-10-08T02:09:36.176Z,100
2022-10-08T02:10:36.216Z,100
2022-10-08T02:11:36.048Z,100
2022-10-08T02:12:36.097Z,100
2022-10-08T02:13:36.198Z,100
2022-10-08T02:14:36.049Z,100
2022-10-08T02:15:36.093Z,100
2022-10-08T02:16:36.173Z,100
2022-10-08T02:17:36.125Z,100
2022-10-08T02:18:36.053Z,100
2022-10-08T02:19:36.135Z,100
2022-10-08T02:20:36.050Z,100
2022-10-08T02:21:36.056Z,100
2022-10-08T02:22:36.115Z,100
2022-10-08T02:23:36.162Z,100
2022-10-08T02:24:36.129Z,100
2022-10-08T02:25:36.176Z,100
2022-10-08T02:26:36.144Z,100
2022-10-08T02:27:36.153Z,100
2022-10-08T02:28:36.099Z,100
2022-10-08T02:29:36.086Z,100
2022-10-08T02:30:36.166Z,100
2022-10-08T02:31:36.226Z,100
2022-10-08T02:32:36.070Z,100
2022-10-08T02:33:36.141Z,100
2022-10-08T02:34:36.041Z,100
2022-10-08T02:35:36.082Z,100
2022-10-08T02:36:36.126Z,100
2022-10-08T02:37:36.066Z,100
2022-10-08T02:38:36.090Z,100
2022-10-08T02:39:36.116Z,100
2022-10-08T02:40:36.053Z,100
2022-10-08T02:41:36.084Z,100
2022-10-08T02:42:36.071Z,100
2022-10-08T02:43:36.103Z,100
2022-10-08T02:44:36.104Z,100
2022-10-08T02:45:36.170Z,100
2022-10-08T02:46:36.100Z,100
2022-10-08T02:47:36.073Z,100
2022-10-08T02:48:36.077Z,100
2022-10-08T02:49:36.085Z,100
2022-10-08T02:50:36.050Z,100
2022-10-08T02:51:36.045Z,100
2022-10-08T02:52:36.084Z,100
2022-10-08T02:53:36.047Z,100
2022-10-08T02:54:36.092Z,100
2022-10-08T02:55:36.126Z,100
2022-10-08T02:56:36.104Z,100
2022-10-08T02:57:36.080Z,100
2022-10-08T02:58:36.087Z,100
2022-10-08T02:59:36.048Z,100
2022-10-08T03:00:36.076Z,100
2022-10-08T03:01:36.248Z,100
2022-10-08T03:02:36.141Z,100
2022-10-08T03:03:36.043Z,100
2022-10-08T03:04:36.048Z,100
2022-10-08T03:05:36.134Z,100
2022-10-08T03:06:36.268Z,100
2022-10-08T03:07:36.303Z,100
2022-10-08T03:08:36.195Z,100
2022-10-08T03:09:38.302Z,100
2022-10-08T03:10:36.129Z,100
2022-10-08T03:11:36.163Z,100
2022-10-08T03:12:36.215Z,100
2022-10-08T03:13:36.216Z,100
2022-10-08T03:14:36.085Z,100
2022-10-08T03:15:36.081Z,100
2022-10-08T03:16:36.199Z,100
2022-10-08T03:17:36.166Z,100
2022-10-08T03:18:36.096Z,100
2022-10-08T03:19:36.064Z,100
2022-10-08T03:20:36.178Z,100
2022-10-08T03:21:36.080Z,100
2022-10-08T03:22:36.097Z,100
2022-10-08T03:23:36.114Z,100
2022-10-08T03:24:36.136Z,100
2022-10-08T03:25:36.112Z,100
2022-10-08T03:26:36.111Z,100
2022-10-08T03:27:36.092Z,100
2022-10-08T03:28:36.171Z,100
2022-10-08T03:29:36.150Z,100
2022-10-08T03:30:36.239Z,100
2022-10-08T03:31:36.179Z,100
2022-10-08T03:32:36.225Z,100
2022-10-08T03:33:36.212Z,100
2022-10-08T03:34:36.092Z,100
2022-10-08T03:35:36.069Z,100
2022-10-08T03:36:36.088Z,100
2022-10-08T03:37:36.125Z,100
2022-10-08T03:38:36.093Z,100
2022-10-08T03:39:36.045Z,100
2022-10-08T03:40:36.083Z,100
2022-10-08T03:41:36.266Z,100
2022-10-08T03:42:36.137Z,100
2022-10-08T03:43:36.138Z,100
2022-10-08T03:44:36.153Z,100
2022-10-08T03:45:36.187Z,100
2022-10-08T03:46:36.166Z,100
2022-10-08T03:47:36.163Z,100
2022-10-08T03:48:36.105Z,100
2022-10-08T03:49:36.118Z,100
2022-10-08T03:50:36.194Z,100
2022-10-08T03:51:36.087Z,100
2022-10-08T03:52:36.069Z,100
2022-10-08T03:53:36.114Z,100
2022-10-08T03:54:36.129Z,100
2022-10-08T03:55:36.132Z,100
2022-10-08T03:56:36.194Z,100
2022-10-08T03:57:36.166Z,100
2022-10-08T03:58:36.195Z,100
2022-10-08T03:59:36.259Z,100
2022-10-08T04:00:36.219Z,100
2022-10-08T04:01:36.321Z,100
2022-10-08T04:02:36.442Z,100
2022-10-08T04:03:36.207Z,100
2022-10-08T04:04:36.283Z,100
2022-10-08T04:05:36.377Z,100
2022-10-08T04:06:36.406Z,100
2022-10-08T04:07:36.364Z,100
2022-10-08T04:08:36.523Z,100
2022-10-08T04:09:36.382Z,100
2022-10-08T04:10:36.139Z,100
2022-10-08T04:11:36.145Z,100
2022-10-08T04:12:36.127Z,100
2022-10-08T04:13:36.119Z,100
2022-10-08T04:14:36.075Z,100
2022-10-08T04:15:36.118Z,100
2022-10-08T04:16:38.353Z,100
2022-10-08T04:17:36.085Z,100
2022-10-08T04:18:36.071Z,100
2022-10-08T04:19:36.054Z,100
2022-10-08T04:20:36.156Z,100
2022-10-08T04:21:36.164Z,100
2022-10-08T04:22:36.056Z,100
2022-10-08T04:23:36.065Z,100
2022-10-08T04:24:36.084Z,100
2022-10-08T04:25:36.055Z,100
2022-10-08T04:26:36.064Z,100
2022-10-08T04:27:36.198Z,100
2022-10-08T04:28:38.647Z,100
2022-10-08T04:29:36.046Z,100
2022-10-08T04:30:36.115Z,100
2022-10-08T04:31:36.188Z,100
2022-10-08T04:32:36.045Z,100
2022-10-08T04:33:36.143Z,100
2022-10-08T04:34:36.142Z,100
2022-10-08T04:35:36.224Z,100
2022-10-08T04:36:36.182Z,100
2022-10-08T04:37:36.160Z,100
2022-10-08T04:38:36.148Z,100
2022-10-08T04:39:36.265Z,100
2022-10-08T04:40:36.447Z,100
2022-10-08T04:41:36.183Z,100
2022-10-08T04:42:36.343Z,100
2022-10-08T04:43:36.095Z,100
2022-10-08T04:44:36.286Z,100
2022-10-08T04:45:36.051Z,100
2022-10-08T04:46:36.210Z,100
2022-10-08T04:47:36.065Z,100
2022-10-08T04:48:36.055Z,100
2022-10-08T04:49:36.062Z,100
2022-10-08T04:50:36.048Z,100
2022-10-08T04:51:36.157Z,100
2022-10-08T04:52:36.041Z,100
2022-10-08T04:53:36.048Z,100
2022-10-08T04:54:36.049Z,100
2022-10-08T04:55:36.135Z,100
2022-10-08T04:56:36.049Z,100
2022-10-08T04:57:36.075Z,100
2022-10-08T04:58:36.108Z,100
2022-10-08T04:59:36.239Z,100
2022-10-08T05:00:36.070Z,100
2022-10-08T05:01:36.107Z,100
2022-10-08T05:02:36.102Z,100
2022-10-08T05:03:36.047Z,100
2022-10-08T05:04:36.059Z,100
2022-10-08T05:05:36.058Z,100
2022-10-08T05:06:36.118Z,100
2022-10-08T05:07:36.081Z,100
2022-10-08T05:08:36.052Z,100
2022-10-08T05:09:36.051Z,100
2022-10-08T05:10:36.051Z,100
2022-10-08T05:11:36.049Z,100
2022-10-08T05:12:36.109Z,100
2022-10-08T05:13:36.056Z,100
2022-10-08T05:14:36.108Z,100
2022-10-08T05:15:36.133Z,100
2022-10-08T05:16:36.059Z,100
2022-10-08T05:17:36.125Z,100
2022-10-08T05:18:36.144Z,100
2022-10-08T05:19:36.132Z,100
2022-10-08T05:20:36.068Z,100
2022-10-08T05:21:36.054Z,100
2022-10-08T05:22:36.147Z,100
2022-10-08T05:23:38.140Z,100
2022-10-08T05:24:36.056Z,100
2022-10-08T05:25:36.166Z,100
2022-10-08T05:26:56.759Z,100
2022-10-08T05:27:36.068Z,100
2022-10-08T05:28:36.118Z,100
2022-10-08T05:29:36.061Z,100
2022-10-08T05:30:36.210Z,100
2022-10-08T05:31:36.211Z,100
2022-10-08T05:32:36.048Z,100
2022-10-08T05:33:36.056Z,100
2022-10-08T05:34:36.129Z,100
2022-10-08T05:35:36.091Z,100
2022-10-08T05:36:36.137Z,100
2022-10-08T05:37:36.137Z,100
2022-10-08T05:38:36.142Z,100
2022-10-08T05:39:36.151Z,100
2022-10-08T05:40:36.162Z,100
2022-10-08T05:41:36.064Z,100
2022-10-08T05:42:36.064Z,100
2022-10-08T05:43:36.076Z,100
2022-10-08T05:44:37.785Z,100
2022-10-08T05:45:36.187Z,100
2022-10-08T05:46:36.178Z,100
2022-10-08T05:47:36.107Z,100
2022-10-08T05:48:36.117Z,100
2022-10-08T05:49:36.080Z,100
2022-10-08T05:50:36.058Z,100
2022-10-08T05:51:36.147Z,100
2022-10-08T05:52:36.140Z,100
2022-10-08T05:53:36.142Z,100
2022-10-08T05:54:36.147Z,100
2022-10-08T05:55:36.159Z,100
2022-10-08T05:56:36.313Z,100
2022-10-08T05:57:36.353Z,100
2022-10-08T05:58:36.255Z,100
2022-10-08T05:59:36.304Z,100
2022-10-08T06:00:36.394Z,100
2022-10-08T06:01:36.193Z,100
2022-10-08T06:02:36.146Z,100
2022-10-08T06:03:36.112Z,100
2022-10-08T06:04:36.196Z,100
2022-10-08T06:05:36.133Z,100
2022-10-08T06:06:36.132Z,100
2022-10-08T06:07:36.056Z,100
2022-10-08T06:08:36.116Z,100
2022-10-08T06:09:36.111Z,100
2022-10-08T06:10:36.057Z,100
2022-10-08T06:11:36.160Z,100
2022-10-08T06:12:36.163Z,100
2022-10-08T06:13:36.075Z,100
2022-10-08T06:14:36.048Z,100
2022-10-08T06:15:36.073Z,100
2022-10-08T06:16:36.283Z,100
2022-10-08T06:17:36.107Z,100
2022-10-08T06:18:36.105Z,100
2022-10-08T06:19:36.052Z,100
2022-10-08T06:20:36.136Z,100
2022-10-08T06:21:36.107Z,100
2022-10-08T06:22:36.104Z,100
2022-10-08T06:23:36.052Z,100
2022-10-08T06:24:36.152Z,100
2022-10-08T06:25:36.095Z,100
2022-10-08T06:26:36.496Z,100
2022-10-08T06:27:36.055Z,100
2022-10-08T06:28:36.165Z,100
2022-10-08T06:29:36.049Z,100
2022-10-08T06:30:38.113Z,100
2022-10-08T06:31:36.169Z,100
2022-10-08T06:32:36.107Z,100
2022-10-08T06:33:36.066Z,100
2022-10-08T06:34:36.047Z,100
2022-10-08T06:35:36.070Z,100
2022-10-08T06:36:36.098Z,100
2022-10-08T06:37:36.053Z,100
2022-10-08T06:38:36.070Z,100
2022-10-08T06:39:36.160Z,100
2022-10-08T06:40:36.094Z,100
2022-10-08T06:41:36.069Z,100
2022-10-08T06:42:36.170Z,100
2022-10-08T06:43:36.191Z,100
2022-10-08T06:44:36.160Z,100
2022-10-08T06:45:36.073Z,100
2022-10-08T06:46:36.152Z,100
2022-10-08T06:47:36.137Z,100
2022-10-08T06:48:36.188Z,100
2022-10-08T06:49:36.079Z,100
2022-10-08T06:50:36.213Z,100
2022-10-08T06:51:36.088Z,100
2022-10-08T06:52:36.059Z,100
2022-10-08T06:53:36.119Z,100
2022-10-08T06:54:36.127Z,100
2022-10-08T06:55:36.123Z,100
2022-10-08T06:56:36.395Z,100
2022-10-08T06:57:36.149Z,100
2022-10-08T06:58:36.145Z,100
2022-10-08T06:59:36.071Z,100
2022-10-08T07:00:36.155Z,100
2022-10-08T07:01:36.530Z,100
2022-10-08T07:02:36.097Z,100
2022-10-08T07:03:36.190Z,100
2022-10-08T07:04:36.182Z,100
2022-10-08T07:05:36.070Z,100
2022-10-08T07:06:36.105Z,100
2022-10-08T07:07:36.047Z,100
2022-10-08T07:08:36.120Z,100
2022-10-08T07:09:36.055Z,100
2022-10-08T07:10:36.143Z,100
2022-10-08T07:11:36.078Z,100
2022-10-08T07:12:36.242Z,100
2022-10-08T07:13:36.137Z,100
2022-10-08T07:14:36.157Z,100
2022-10-08T07:15:36.162Z,100
2022-10-08T07:16:36.192Z,100
2022-10-08T07:17:36.066Z,100
2022-10-08T07:18:36.088Z,100
2022-10-08T07:19:36.180Z,100
2022-10-08T07:20:36.076Z,100
2022-10-08T07:21:36.095Z,100
2022-10-08T07:22:36.080Z,100
2022-10-08T07:23:36.065Z,100
2022-10-08T07:24:36.044Z,100
2022-10-08T07:25:36.138Z,100
2022-10-08T07:26:36.232Z,100
2022-10-08T07:27:36.131Z,100
2022-10-08T07:28:36.128Z,100
2022-10-08T07:29:36.150Z,100
2022-10-08T07:30:36.142Z,100
2022-10-08T07:31:36.273Z,100
2022-10-08T07:32:36.170Z,100
2022-10-08T07:33:36.183Z,100
2022-10-08T07:34:36.169Z,100
2022-10-08T07:35:36.175Z,100
2022-10-08T07:36:36.063Z,100
2022-10-08T07:37:36.079Z,100
2022-10-08T07:38:36.100Z,100
2022-10-08T07:39:36.106Z,100
2022-10-08T07:40:36.112Z,100
2022-10-08T07:41:36.122Z,100
2022-10-08T07:42:36.127Z,100
2022-10-08T07:43:36.132Z,100
2022-10-08T07:44:36.138Z,100
2022-10-08T07:45:36.211Z,100
2022-10-08T07:46:36.057Z,100
2022-10-08T07:47:36.160Z,100
2022-10-08T07:48:36.085Z,100
2022-10-08T07:49:36.064Z,100
2022-10-08T07:50:36.170Z,100
2022-10-08T07:51:36.188Z,100
2022-10-08T07:52:36.084Z,100
2022-10-08T07:53:36.084Z,100
2022-10-08T07:54:36.093Z,100
2022-10-08T07:55:36.107Z,100
2022-10-08T07:56:36.111Z,100
2022-10-08T07:57:36.124Z,100
2022-10-08T07:58:36.221Z,100
2022-10-08T07:59:36.135Z,100
2022-10-08T08:00:36.101Z,100
2022-10-08T08:01:36.060Z,100
2022-10-08T08:02:36.214Z,100
2022-10-08T08:03:36.059Z,100
2022-10-08T08:04:36.162Z,100
2022-10-08T08:05:36.169Z,100
2022-10-08T08:06:36.172Z,100
2022-10-08T08:07:36.087Z,100
2022-10-08T08:08:36.193Z,100
2022-10-08T08:09:36.091Z,100
2022-10-08T08:10:36.111Z,100
2022-10-08T08:11:36.067Z,100
2022-10-08T08:12:36.069Z,100
2022-10-08T08:13:37.514Z,100
2022-10-08T08:14:36.163Z,100
2022-10-08T08:15:36.147Z,100
2022-10-08T08:16:36.150Z,100
2022-10-08T08:17:36.141Z,100
2022-10-08T08:18:36.155Z,100
2022-10-08T08:19:36.155Z,100
2022-10-08T08:20:36.174Z,100
2022-10-08T08:21:36.172Z,100
2022-10-08T08:22:36.189Z,100
2022-10-08T08:23:36.098Z,100
2022-10-08T08:24:36.125Z,100
2022-10-08T08:25:36.065Z,100
2022-10-08T08:26:36.109Z,100
2022-10-08T08:27:36.106Z,100
2022-10-08T08:28:36.175Z,100
2022-10-08T08:29:36.124Z,100
2022-10-08T08:30:36.067Z,100
2022-10-08T08:31:36.208Z,100
2022-10-08T08:32:36.142Z,100
2022-10-08T08:33:36.143Z,100
2022-10-08T08:34:36.057Z,100
2022-10-08T08:35:36.052Z,100
2022-10-08T08:36:36.204Z,100
2022-10-08T08:37:36.093Z,100
2022-10-08T08:38:36.073Z,100
2022-10-08T08:39:36.185Z,100
2022-10-08T08:40:36.087Z,100
2022-10-08T08:41:36.069Z,100
2022-10-08T08:42:36.050Z,100
2022-10-08T08:43:36.117Z,100
2022-10-08T08:44:36.256Z,100
2022-10-08T08:45:46.387Z,100
2022-10-08T08:46:36.216Z,100
2022-10-08T08:47:36.138Z,100
2022-10-08T08:48:36.132Z,100
2022-10-08T08:49:36.061Z,100
2022-10-08T08:50:36.157Z,100
2022-10-08T08:51:36.165Z,100
2022-10-08T08:52:36.117Z,100
2022-10-08T08:53:36.186Z,100
2022-10-08T08:54:36.141Z,100
2022-10-08T08:55:36.103Z,100
2022-10-08T08:56:36.060Z,100
2022-10-08T08:57:36.097Z,100
2022-10-08T08:58:36.106Z,100
2022-10-08T08:59:36.120Z,100
2022-10-08T09:00:36.217Z,100
2022-10-08T09:01:36.203Z,100
2022-10-08T09:02:36.072Z,100
2022-10-08T09:03:36.177Z,100
2022-10-08T09:04:36.155Z,100
2022-10-08T09:05:36.172Z,100
2022-10-08T09:06:36.148Z,100
2022-10-08T09:07:36.064Z,100
2022-10-08T09:08:36.173Z,100
2022-10-08T09:09:36.068Z,100
2022-10-08T09:10:36.055Z,100
2022-10-08T09:11:36.084Z,100
2022-10-08T09:12:36.095Z,100
2022-10-08T09:13:36.120Z,100
2022-10-08T09:14:36.066Z,100
2022-10-08T09:15:36.132Z,100
2022-10-08T09:16:36.196Z,100
2022-10-08T09:17:36.124Z,100
2022-10-08T09:18:36.120Z,100
2022-10-08T09:19:36.153Z,100
2022-10-08T09:20:40.109Z,100
2022-10-08T09:21:36.158Z,100
2022-10-08T09:22:36.157Z,100
2022-10-08T09:23:36.108Z,100
2022-10-08T09:24:36.166Z,100
2022-10-08T09:25:36.180Z,100
2022-10-08T09:26:36.086Z,100
2022-10-08T09:27:36.096Z,100
2022-10-08T09:28:36.207Z,100
2022-10-08T09:29:36.107Z,100
2022-10-08T09:30:36.182Z,100
2022-10-08T09:31:36.279Z,100
2022-10-08T09:32:36.115Z,100
2022-10-08T09:33:36.121Z,100
2022-10-08T09:34:36.118Z,100
2022-10-08T09:35:36.059Z,100
2022-10-08T09:36:36.058Z,100
2022-10-08T09:37:36.157Z,100
2022-10-08T09:38:36.064Z,100
2022-10-08T09:39:36.110Z,100
2022-10-08T09:40:36.168Z,100
2022-10-08T09:41:36.071Z,100
2022-10-08T09:42:36.084Z,100
2022-10-08T09:43:36.205Z,100
2022-10-08T09:44:36.090Z,100
2022-10-08T09:45:36.115Z,100
2022-10-08T09:46:36.130Z,100
2022-10-08T09:47:36.109Z,100
2022-10-08T09:48:36.142Z,100
2022-10-08T09:49:36.125Z,100
2022-10-08T09:50:36.066Z,100
2022-10-08T09:51:36.081Z,100
2022-10-08T09:52:36.065Z,100
2022-10-08T09:53:36.166Z,100
2022-10-08T09:54:36.133Z,100
2022-10-08T09:55:36.164Z,100
2022-10-08T09:56:36.074Z,100
2022-10-08T09:57:39.384Z,100
2022-10-08T09:58:36.083Z,100
2022-10-08T09:59:36.102Z,100
2022-10-08T10:00:36.055Z,100
2022-10-08T10:01:36.117Z,100
2022-10-08T10:02:36.115Z,100
2022-10-08T10:03:36.211Z,100
2022-10-08T10:04:36.145Z,100
2022-10-08T10:05:36.061Z,100
2022-10-08T10:06:36.064Z,100
2022-10-08T10:07:36.145Z,100
2022-10-08T10:08:36.142Z,100
2022-10-08T10:09:36.155Z,100
2022-10-08T10:10:36.155Z,100
2022-10-08T10:11:36.163Z,99.8
2022-10-08T10:12:36.077Z,100
2022-10-08T10:13:36.188Z,100
2022-10-08T10:14:36.063Z,99.7
2022-10-08T10:15:36.078Z,96.4
2022-10-08T10:16:36.145Z,94.3
2022-10-08T10:17:36.107Z,93.6
2022-10-08T10:18:36.206Z,94.3
2022-10-08T10:19:36.116Z,92.5
2022-10-08T10:20:36.126Z,91.6
2022-10-08T10:21:36.136Z,90
2022-10-08T10:22:36.136Z,89.5
2022-10-08T10:23:36.143Z,86.7
2022-10-08T10:24:36.149Z,86.4
2022-10-08T10:25:36.160Z,89.7
2022-10-08T10:26:36.159Z,90.4
2022-10-08T10:27:36.178Z,89
2022-10-08T10:28:36.157Z,88.7
2022-10-08T10:29:36.060Z,87
2022-10-08T10:30:36.111Z,83.7
2022-10-08T10:31:36.086Z,85
2022-10-08T10:32:36.103Z,86.3
2022-10-08T10:33:36.204Z,86.4
2022-10-08T10:34:36.209Z,88.3
2022-10-08T10:35:36.056Z,90.6
2022-10-08T10:36:36.222Z,89.4
2022-10-08T10:37:36.151Z,92.7
2022-10-08T10:38:39.583Z,94.8
2022-10-08T10:39:36.137Z,95.2
2022-10-08T10:40:36.084Z,93.6
2022-10-08T10:41:36.149Z,94.6
2022-10-08T10:42:36.116Z,88.9
2022-10-08T10:43:36.067Z,90.2
2022-10-08T10:44:36.174Z,86.7
2022-10-08T10:45:36.072Z,85.5
2022-10-08T10:46:36.184Z,84.5
2022-10-08T10:47:36.083Z,85
2022-10-08T10:48:36.088Z,86.9
2022-10-08T10:49:36.198Z,89.1
2022-10-08T10:50:36.206Z,87.6
2022-10-08T10:51:36.121Z,89.2
2022-10-08T10:52:36.074Z,90.1
2022-10-08T10:53:36.112Z,91.4
2022-10-08T10:54:36.141Z,91.4
2022-10-08T10:55:36.059Z,92.1
2022-10-08T10:56:36.063Z,93.7
2022-10-08T10:57:36.170Z,92.9
2022-10-08T10:58:36.166Z,92.8
2022-10-08T10:59:36.190Z,92.6
2022-10-08T11:00:36.168Z,93.4
2022-10-08T11:01:36.272Z,93
2022-10-08T11:02:36.114Z,90.8
2022-10-08T11:03:36.081Z,87.1
2022-10-08T11:04:36.102Z,86.8
2022-10-08T11:05:36.117Z,88.4
2022-10-08T11:06:36.061Z,87.9
2022-10-08T11:07:36.063Z,84.5
2022-10-08T11:08:36.067Z,84.8
2022-10-08T11:09:36.067Z,81.2
2022-10-08T11:10:36.074Z,78.7
2022-10-08T11:11:36.068Z,79.1
2022-10-08T11:12:36.146Z,80.9
2022-10-08T11:13:36.101Z,80.2
2022-10-08T11:14:36.088Z,77.6
2022-10-08T11:15:36.204Z,79.1
2022-10-08T11:16:36.068Z,78.9
2022-10-08T11:17:36.066Z,80.3
2022-10-08T11:18:36.064Z,80.8
2022-10-08T11:19:36.057Z,81.2
2022-10-08T11:20:36.114Z,81.5
2022-10-08T11:21:36.109Z,80.7
2022-10-08T11:22:36.060Z,80.1
2022-10-08T11:23:36.076Z,79.9
2022-10-08T11:24:36.068Z,80.6
2022-10-08T11:25:49.958Z,81.2
2022-10-08T11:26:36.128Z,81.7
2022-10-08T11:27:36.077Z,81.6
2022-10-08T11:28:36.183Z,83
2022-10-08T11:29:36.108Z,83.5
2022-10-08T11:30:36.119Z,84.2
2022-10-08T11:31:36.165Z,84.7
2022-10-08T11:32:36.182Z,85.8
2022-10-08T11:33:36.067Z,84.6
2022-10-08T11:34:36.066Z,83.9
2022-10-08T11:35:36.066Z,83.6
2022-10-08T11:36:36.195Z,85.4
2022-10-08T11:37:36.097Z,86.4
2022-10-08T11:38:36.116Z,88.3
2022-10-08T11:39:36.076Z,89.5
2022-10-08T11:40:36.132Z,90.2
2022-10-08T11:41:36.125Z,91.9
2022-10-08T11:42:40.654Z,91.6
2022-10-08T11:43:36.120Z,92.7
2022-10-08T11:44:36.167Z,94.2
2022-10-08T11:45:36.163Z,95.8
2022-10-08T11:46:36.255Z,94.8
2022-10-08T11:47:36.065Z,94.9
2022-10-08T11:48:36.079Z,97.2
2022-10-08T11:49:36.069Z,96.3
2022-10-08T11:50:36.179Z,97.8
2022-10-08T11:51:36.198Z,97.8
2022-10-08T11:52:36.195Z,97.9
2022-10-08T11:53:36.056Z,98.2
2022-10-08T11:54:36.071Z,98.1
2022-10-08T11:55:36.130Z,98
2022-10-08T11:56:36.055Z,97.5
2022-10-08T11:58:06.257Z,97.1
2022-10-08T11:58:36.136Z,92.7
2022-10-08T11:59:36.148Z,85.6
2022-10-08T12:00:36.148Z,78
2022-10-08T12:01:36.184Z,70.9
2022-10-08T12:02:36.227Z,66.5
2022-10-08T12:03:36.352Z,59.6
2022-10-08T12:04:36.204Z,58.9
2022-10-08T12:05:36.183Z,56.6
2022-10-08T12:06:36.082Z,54.4
2022-10-08T12:07:36.193Z,52.5
2022-10-08T12:08:36.143Z,50.7
2022-10-08T12:09:36.065Z,51.1
2022-10-08T12:10:36.073Z,51.8
2022-10-08T12:11:36.111Z,51.5
2022-10-08T12:12:36.117Z,50.2
2022-10-08T12:13:36.072Z,48.6
2022-10-08T12:14:36.061Z,47.5
2022-10-08T12:15:36.209Z,47.5
2022-10-08T12:16:36.143Z,48.4
2022-10-08T12:17:36.154Z,48.5
2022-10-08T12:18:36.160Z,52.4
2022-10-08T12:19:36.147Z,56.7
2022-10-08T12:20:36.174Z,61.5
2022-10-08T12:21:36.133Z,67.3
2022-10-08T12:22:36.220Z,72.1
2022-10-08T12:23:36.297Z,75
2022-10-08T12:24:36.273Z,78.3
2022-10-08T12:25:36.190Z,79.8
2022-10-08T12:26:36.300Z,82
2022-10-08T12:27:36.341Z,83.2
2022-10-08T12:28:36.428Z,86
2022-10-08T12:29:36.424Z,90.8
2022-10-08T12:30:36.144Z,92.2
2022-10-08T12:31:36.128Z,94.7
2022-10-08T12:32:36.077Z,96.5
2022-10-08T12:33:36.663Z,96.7
2022-10-08T12:34:36.145Z,99
2022-10-08T12:35:36.164Z,99.4
2022-10-08T12:36:36.063Z,100
2022-10-08T12:37:36.079Z,97.7
2022-10-08T12:38:36.192Z,88.6
2022-10-08T12:39:36.106Z,80.5
2022-10-08T12:40:36.099Z,73.3
2022-10-08T12:41:36.104Z,71.2
2022-10-08T12:42:36.118Z,65.3
2022-10-08T12:43:36.117Z,65.5
2022-10-08T12:44:36.129Z,63.7
2022-10-08T12:45:36.125Z,61.4
2022-10-08T12:46:36.252Z,60.2
2022-10-08T12:47:36.150Z,58.4
2022-10-08T12:48:36.066Z,56.9
2022-10-08T12:49:36.163Z,59.2
2022-10-08T12:50:36.158Z,60.1
2022-10-08T12:51:36.076Z,61.2
2022-10-08T12:52:36.059Z,66.3
2022-10-08T12:53:36.177Z,69.2
2022-10-08T12:54:36.183Z,72
2022-10-08T12:55:38.144Z,75.9
2022-10-08T12:56:36.097Z,80
2022-10-08T12:57:36.113Z,77.3
2022-10-08T12:58:36.205Z,75.6
2022-10-08T12:59:36.069Z,72.7
2022-10-08T13:00:36.125Z,72.2
2022-10-08T13:01:36.178Z,72.1
2022-10-08T13:02:36.138Z,77.5
2022-10-08T13:03:36.085Z,78.4
2022-10-08T13:04:36.156Z,81
2022-10-08T13:05:36.073Z,82.6
2022-10-08T13:06:36.159Z,83.6
2022-10-08T13:07:36.172Z,82.9
2022-10-08T13:08:36.070Z,79.2
2022-10-08T13:09:36.175Z,73.9
2022-10-08T13:10:36.201Z,72.3
2022-10-08T13:11:36.089Z,70.9
2022-10-08T13:12:36.193Z,68.7
2022-10-08T13:13:36.081Z,64.9
2022-10-08T13:14:36.094Z,66.8
2022-10-08T13:15:36.110Z,71.7
2022-10-08T13:16:36.120Z,74.2
2022-10-08T13:17:36.124Z,76.3
2022-10-08T13:18:36.108Z,77.2
2022-10-08T13:19:36.144Z,80.9
2022-10-08T13:20:36.149Z,81.4
2022-10-08T13:21:36.065Z,80.9
2022-10-08T13:22:36.158Z,80.7
2022-10-08T13:23:36.184Z,77.2
2022-10-08T13:24:36.063Z,71.8
2022-10-08T13:25:36.115Z,66.1
2022-10-08T13:26:36.106Z,66.3
2022-10-08T13:27:36.088Z,62.8
2022-10-08T13:28:59.209Z,59.1
2022-10-08T13:29:36.208Z,55.8
2022-10-08T13:30:36.068Z,55.7
2022-10-08T13:31:36.191Z,52
2022-10-08T13:32:36.131Z,50.7
2022-10-08T13:33:36.230Z,49.2
2022-10-08T13:34:36.122Z,46.5
2022-10-08T13:35:36.077Z,45.3
2022-10-08T13:36:38.049Z,44.9
2022-10-08T13:37:36.075Z,43.4
2022-10-08T13:38:36.073Z,42.5
2022-10-08T13:39:36.065Z,43.9
2022-10-08T13:40:36.172Z,46.4